sensor_id;sensor_type;location;lat;lon;timestamp;P1;durP1;ratioP1;P2;durP2;ratioP2
6017;SDS011;3037;51.068;13.780;2023-04-30T00:01:55;19.30;;;16.00;;
6017;SDS011;3037;51.068;13.780;2023-04-30T00:04:20;20.00;;;14.50;;
6017;SDS011;3037;51.068;13.780;2023-04-30T00:06:46;23.53;;;16.13;;
6017;SDS011;3037;51.068;13.780;2023-04-30T00:09:11;17.03;;;14.77;;
6017;SDS011;3037;51.068;13.780;2023-04-30T00:11:37;22.17;;;15.23;;
6017;SDS011;3037;51.068;13.780;2023-04-30T00:14:02;19.07;;;14.13;;
6017;SDS011;3037;51.068;13.780;2023-04-30T00:16:28;22.83;;;15.17;;
6017;SDS011;3037;51.068;13.780;2023-04-30T00:18:53;20.47;;;15.60;;
6017;SDS011;3037;51.068;13.780;2023-04-30T00:21:19;30.20;;;14.23;;
6017;SDS011;3037;51.068;13.780;2023-04-30T00:23:44;22.70;;;14.70;;
6017;SDS011;3037;51.068;13.780;2023-04-30T00:26:10;23.60;;;14.93;;
6017;SDS011;3037;51.068;13.780;2023-04-30T00:28:35;23.30;;;15.07;;
6017;SDS011;3037;51.068;13.780;2023-04-30T00:31:01;19.00;;;14.50;;
6017;SDS011;3037;51.068;13.780;2023-04-30T00:33:27;21.37;;;15.23;;
6017;SDS011;3037;51.068;13.780;2023-04-30T00:35:52;15.70;;;13.97;;
6017;SDS011;3037;51.068;13.780;2023-04-30T00:38:18;19.53;;;13.40;;
6017;SDS011;3037;51.068;13.780;2023-04-30T00:40:43;13.60;;;12.00;;
6017;SDS011;3037;51.068;13.780;2023-04-30T00:43:10;13.93;;;9.70;;
6017;SDS011;3037;51.068;13.780;2023-04-30T00:45:36;13.13;;;10.50;;
6017;SDS011;3037;51.068;13.780;2023-04-30T00:48:01;19.00;;;8.70;;
6017;SDS011;3037;51.068;13.780;2023-04-30T00:50:27;12.23;;;9.33;;
6017;SDS011;3037;51.068;13.780;2023-04-30T00:52:53;13.17;;;8.87;;
6017;SDS011;3037;51.068;13.780;2023-04-30T00:55:19;19.10;;;8.50;;
6017;SDS011;3037;51.068;13.780;2023-04-30T00:57:45;13.00;;;7.40;;
6017;SDS011;3037;51.068;13.780;2023-04-30T01:00:11;9.70;;;7.37;;
6017;SDS011;3037;51.068;13.780;2023-04-30T01:02:37;8.23;;;7.10;;
6017;SDS011;3037;51.068;13.780;2023-04-30T01:05:03;7.80;;;7.10;;
6017;SDS011;3037;51.068;13.780;2023-04-30T01:07:30;7.80;;;6.40;;
6017;SDS011;3037;51.068;13.780;2023-04-30T01:09:55;11.10;;;6.80;;
6017;SDS011;3037;51.068;13.780;2023-04-30T01:17:47;11.53;;;7.23;;
6017;SDS011;3037;51.068;13.780;2023-04-30T01:20:25;9.97;;;7.33;;
6017;SDS011;3037;51.068;13.780;2023-04-30T01:30:40;15.90;;;7.70;;
6017;SDS011;3037;51.068;13.780;2023-04-30T01:33:08;10.03;;;8.33;;
6017;SDS011;3037;51.068;13.780;2023-04-30T01:39:00;10.43;;;8.67;;
6017;SDS011;3037;51.068;13.780;2023-04-30T01:47:03;21.03;;;8.30;;
6017;SDS011;3037;51.068;13.780;2023-04-30T01:52:42;13.20;;;8.47;;
6017;SDS011;3037;51.068;13.780;2023-04-30T01:55:26;11.83;;;7.60;;
6017;SDS011;3037;51.068;13.780;2023-04-30T01:57:59;9.60;;;7.60;;
6017;SDS011;3037;51.068;13.780;2023-04-30T02:00:45;11.60;;;9.03;;
6017;SDS011;3037;51.068;13.780;2023-04-30T02:03:10;20.47;;;7.97;;
6017;SDS011;3037;51.068;13.780;2023-04-30T02:05:36;11.73;;;8.33;;
6017;SDS011;3037;51.068;13.780;2023-04-30T02:08:01;12.40;;;7.90;;
6017;SDS011;3037;51.068;13.780;2023-04-30T02:10:27;9.70;;;8.70;;
6017;SDS011;3037;51.068;13.780;2023-04-30T02:12:54;8.70;;;8.00;;
6017;SDS011;3037;51.068;13.780;2023-04-30T02:15:19;8.67;;;7.73;;
6017;SDS011;3037;51.068;13.780;2023-04-30T02:17:45;13.40;;;7.67;;
6017;SDS011;3037;51.068;13.780;2023-04-30T02:20:11;12.47;;;8.20;;
6017;SDS011;3037;51.068;13.780;2023-04-30T02:22:36;10.23;;;8.33;;
6017;SDS011;3037;51.068;13.780;2023-04-30T02:25:02;10.60;;;8.50;;
6017;SDS011;3037;51.068;13.780;2023-04-30T02:27:29;9.27;;;8.33;;
6017;SDS011;3037;51.068;13.780;2023-04-30T02:29:55;11.33;;;9.63;;
6017;SDS011;3037;51.068;13.780;2023-04-30T02:32:21;14.07;;;8.97;;
6017;SDS011;3037;51.068;13.780;2023-04-30T02:34:47;10.83;;;9.20;;
6017;SDS011;3037;51.068;13.780;2023-04-30T02:37:13;9.63;;;8.60;;
6017;SDS011;3037;51.068;13.780;2023-04-30T02:39:38;14.07;;;11.83;;
6017;SDS011;3037;51.068;13.780;2023-04-30T02:42:05;13.93;;;10.93;;
6017;SDS011;3037;51.068;13.780;2023-04-30T02:44:31;21.57;;;11.87;;
6017;SDS011;3037;51.068;13.780;2023-04-30T02:46:57;17.90;;;11.43;;
6017;SDS011;3037;51.068;13.780;2023-04-30T02:49:23;22.53;;;12.00;;
6017;SDS011;3037;51.068;13.780;2023-04-30T02:51:48;16.53;;;11.43;;
6017;SDS011;3037;51.068;13.780;2023-04-30T02:54:14;13.23;;;10.93;;
6017;SDS011;3037;51.068;13.780;2023-04-30T02:56:39;16.47;;;10.57;;
6017;SDS011;3037;51.068;13.780;2023-04-30T02:59:05;16.00;;;10.20;;
6017;SDS011;3037;51.068;13.780;2023-04-30T03:01:31;22.53;;;11.20;;
6017;SDS011;3037;51.068;13.780;2023-04-30T03:03:56;11.83;;;9.70;;
6017;SDS011;3037;51.068;13.780;2023-04-30T03:06:24;12.33;;;9.80;;
6017;SDS011;3037;51.068;13.780;2023-04-30T03:08:50;11.60;;;10.27;;
6017;SDS011;3037;51.068;13.780;2023-04-30T03:11:15;11.57;;;9.20;;
6017;SDS011;3037;51.068;13.780;2023-04-30T03:13:41;11.10;;;8.97;;
6017;SDS011;3037;51.068;13.780;2023-04-30T03:16:07;15.63;;;11.43;;
6017;SDS011;3037;51.068;13.780;2023-04-30T03:18:33;14.73;;;10.40;;
6017;SDS011;3037;51.068;13.780;2023-04-30T03:20:58;12.03;;;10.80;;
6017;SDS011;3037;51.068;13.780;2023-04-30T03:23:25;11.10;;;9.67;;
6017;SDS011;3037;51.068;13.780;2023-04-30T03:25:51;18.03;;;9.87;;
6017;SDS011;3037;51.068;13.780;2023-04-30T03:28:17;13.20;;;10.43;;
6017;SDS011;3037;51.068;13.780;2023-04-30T03:30:43;11.87;;;9.37;;
6017;SDS011;3037;51.068;13.780;2023-04-30T03:33:08;19.63;;;9.60;;
6017;SDS011;3037;51.068;13.780;2023-04-30T03:35:34;13.33;;;9.90;;
6017;SDS011;3037;51.068;13.780;2023-04-30T03:38:00;15.43;;;9.50;;
6017;SDS011;3037;51.068;13.780;2023-04-30T03:40:26;14.50;;;10.60;;
6017;SDS011;3037;51.068;13.780;2023-04-30T03:42:51;9.83;;;8.47;;
6017;SDS011;3037;51.068;13.780;2023-04-30T03:45:17;13.60;;;8.03;;
6017;SDS011;3037;51.068;13.780;2023-04-30T03:47:43;9.37;;;8.47;;
6017;SDS011;3037;51.068;13.780;2023-04-30T03:50:09;16.67;;;8.70;;
6017;SDS011;3037;51.068;13.780;2023-04-30T03:52:35;9.50;;;8.47;;
6017;SDS011;3037;51.068;13.780;2023-04-30T03:55:01;8.83;;;7.93;;
6017;SDS011;3037;51.068;13.780;2023-04-30T03:57:27;9.07;;;7.40;;
6017;SDS011;3037;51.068;13.780;2023-04-30T03:59:53;9.80;;;8.77;;
6017;SDS011;3037;51.068;13.780;2023-04-30T04:02:19;8.57;;;7.60;;
6017;SDS011;3037;51.068;13.780;2023-04-30T04:04:45;12.30;;;7.83;;
6017;SDS011;3037;51.068;13.780;2023-04-30T04:07:11;7.63;;;7.03;;
6017;SDS011;3037;51.068;13.780;2023-04-30T04:09:36;7.20;;;6.50;;
6017;SDS011;3037;51.068;13.780;2023-04-30T04:12:02;10.17;;;7.60;;
6017;SDS011;3037;51.068;13.780;2023-04-30T04:14:28;10.90;;;7.00;;
6017;SDS011;3037;51.068;13.780;2023-04-30T04:16:53;8.30;;;6.97;;
6017;SDS011;3037;51.068;13.780;2023-04-30T04:19:21;8.63;;;6.90;;
6017;SDS011;3037;51.068;13.780;2023-04-30T04:21:47;10.57;;;6.90;;
6017;SDS011;3037;51.068;13.780;2023-04-30T04:24:12;9.13;;;7.40;;
6017;SDS011;3037;51.068;13.780;2023-04-30T04:26:38;7.30;;;5.97;;
6017;SDS011;3037;51.068;13.780;2023-04-30T04:29:03;7.60;;;7.00;;
6017;SDS011;3037;51.068;13.780;2023-04-30T04:31:29;8.37;;;6.80;;
6017;SDS011;3037;51.068;13.780;2023-04-30T04:33:56;11.43;;;6.37;;
6017;SDS011;3037;51.068;13.780;2023-04-30T04:36:25;6.97;;;6.30;;
6017;SDS011;3037;51.068;13.780;2023-04-30T04:38:52;7.20;;;6.57;;
6017;SDS011;3037;51.068;13.780;2023-04-30T04:41:18;7.53;;;5.90;;
6017;SDS011;3037;51.068;13.780;2023-04-30T04:43:44;6.50;;;6.00;;
6017;SDS011;3037;51.068;13.780;2023-04-30T04:46:10;8.87;;;6.90;;
6017;SDS011;3037;51.068;13.780;2023-04-30T04:48:35;6.87;;;6.27;;
6017;SDS011;3037;51.068;13.780;2023-04-30T04:51:01;6.83;;;6.23;;
6017;SDS011;3037;51.068;13.780;2023-04-30T04:53:26;7.40;;;6.50;;
6017;SDS011;3037;51.068;13.780;2023-04-30T04:55:52;5.40;;;4.90;;
6017;SDS011;3037;51.068;13.780;2023-04-30T04:58:17;6.53;;;5.07;;
6017;SDS011;3037;51.068;13.780;2023-04-30T05:00:43;7.50;;;5.43;;
6017;SDS011;3037;51.068;13.780;2023-04-30T05:03:09;7.77;;;5.43;;
6017;SDS011;3037;51.068;13.780;2023-04-30T05:05:35;8.33;;;5.17;;
6017;SDS011;3037;51.068;13.780;2023-04-30T05:08:00;5.90;;;5.20;;
6017;SDS011;3037;51.068;13.780;2023-04-30T05:10:26;7.13;;;5.90;;
6017;SDS011;3037;51.068;13.780;2023-04-30T05:12:51;14.10;;;5.83;;
6017;SDS011;3037;51.068;13.780;2023-04-30T05:15:17;7.83;;;5.57;;
6017;SDS011;3037;51.068;13.780;2023-04-30T05:17:42;6.80;;;4.10;;
6017;SDS011;3037;51.068;13.780;2023-04-30T05:20:08;13.40;;;4.80;;
6017;SDS011;3037;51.068;13.780;2023-04-30T05:22:34;9.43;;;5.27;;
6017;SDS011;3037;51.068;13.780;2023-04-30T05:25:00;12.20;;;5.00;;
6017;SDS011;3037;51.068;13.780;2023-04-30T05:27:25;7.13;;;5.10;;
6017;SDS011;3037;51.068;13.780;2023-04-30T05:29:51;9.80;;;4.83;;
6017;SDS011;3037;51.068;13.780;2023-04-30T05:32:16;4.83;;;4.43;;
6017;SDS011;3037;51.068;13.780;2023-04-30T05:34:42;7.87;;;5.13;;
6017;SDS011;3037;51.068;13.780;2023-04-30T05:37:07;4.60;;;4.20;;
6017;SDS011;3037;51.068;13.780;2023-04-30T05:39:33;5.60;;;4.20;;
6017;SDS011;3037;51.068;13.780;2023-04-30T05:41:58;7.57;;;4.53;;
6017;SDS011;3037;51.068;13.780;2023-04-30T05:44:24;5.10;;;4.10;;
6017;SDS011;3037;51.068;13.780;2023-04-30T05:46:49;8.07;;;4.80;;
6017;SDS011;3037;51.068;13.780;2023-04-30T05:49:15;13.60;;;4.60;;
6017;SDS011;3037;51.068;13.780;2023-04-30T05:51:40;4.63;;;3.97;;
6017;SDS011;3037;51.068;13.780;2023-04-30T05:54:06;12.07;;;5.20;;
6017;SDS011;3037;51.068;13.780;2023-04-30T05:56:31;8.10;;;4.93;;
6017;SDS011;3037;51.068;13.780;2023-04-30T05:58:57;5.03;;;4.43;;
6017;SDS011;3037;51.068;13.780;2023-04-30T06:01:23;8.40;;;4.47;;
6017;SDS011;3037;51.068;13.780;2023-04-30T06:03:49;5.57;;;3.90;;
6017;SDS011;3037;51.068;13.780;2023-04-30T06:06:14;5.40;;;3.87;;
6017;SDS011;3037;51.068;13.780;2023-04-30T06:08:40;6.93;;;3.87;;
6017;SDS011;3037;51.068;13.780;2023-04-30T06:11:09;3.53;;;2.83;;
6017;SDS011;3037;51.068;13.780;2023-04-30T06:13:39;4.73;;;3.90;;
6017;SDS011;3037;51.068;13.780;2023-04-30T06:16:05;5.73;;;3.40;;
6017;SDS011;3037;51.068;13.780;2023-04-30T06:18:32;9.23;;;3.50;;
6017;SDS011;3037;51.068;13.780;2023-04-30T06:20:57;8.23;;;5.13;;
6017;SDS011;3037;51.068;13.780;2023-04-30T06:23:23;3.77;;;2.70;;
6017;SDS011;3037;51.068;13.780;2023-04-30T06:25:48;7.83;;;3.63;;
6017;SDS011;3037;51.068;13.780;2023-04-30T06:28:13;8.37;;;3.20;;
6017;SDS011;3037;51.068;13.780;2023-04-30T06:30:40;4.67;;;3.73;;
6017;SDS011;3037;51.068;13.780;2023-04-30T06:33:05;6.63;;;3.97;;
6017;SDS011;3037;51.068;13.780;2023-04-30T06:35:31;6.50;;;3.50;;
6017;SDS011;3037;51.068;13.780;2023-04-30T06:37:56;5.77;;;3.57;;
6017;SDS011;3037;51.068;13.780;2023-04-30T06:40:22;5.10;;;3.03;;
6017;SDS011;3037;51.068;13.780;2023-04-30T06:42:47;5.70;;;3.33;;
6017;SDS011;3037;51.068;13.780;2023-04-30T06:45:13;7.77;;;3.30;;
6017;SDS011;3037;51.068;13.780;2023-04-30T06:47:39;3.10;;;2.90;;
6017;SDS011;3037;51.068;13.780;2023-04-30T06:50:07;4.33;;;2.87;;
6017;SDS011;3037;51.068;13.780;2023-04-30T06:52:33;4.80;;;3.00;;
6017;SDS011;3037;51.068;13.780;2023-04-30T06:54:59;4.20;;;2.20;;
6017;SDS011;3037;51.068;13.780;2023-04-30T06:57:25;3.57;;;3.20;;
6017;SDS011;3037;51.068;13.780;2023-04-30T06:59:51;5.73;;;3.90;;
6017;SDS011;3037;51.068;13.780;2023-04-30T07:02:16;9.40;;;3.30;;
6017;SDS011;3037;51.068;13.780;2023-04-30T07:04:42;5.27;;;3.40;;
6017;SDS011;3037;51.068;13.780;2023-04-30T07:07:07;5.10;;;3.13;;
6017;SDS011;3037;51.068;13.780;2023-04-30T07:09:33;2.73;;;2.63;;
6017;SDS011;3037;51.068;13.780;2023-04-30T07:11:59;7.30;;;3.47;;
6017;SDS011;3037;51.068;13.780;2023-04-30T07:14:24;5.40;;;3.17;;
6017;SDS011;3037;51.068;13.780;2023-04-30T07:16:50;4.73;;;3.10;;
6017;SDS011;3037;51.068;13.780;2023-04-30T07:19:16;7.07;;;2.63;;
6017;SDS011;3037;51.068;13.780;2023-04-30T07:21:41;4.00;;;3.10;;
6017;SDS011;3037;51.068;13.780;2023-04-30T07:24:07;5.17;;;2.73;;
6017;SDS011;3037;51.068;13.780;2023-04-30T07:26:32;5.60;;;3.30;;
6017;SDS011;3037;51.068;13.780;2023-04-30T07:28:58;3.03;;;2.83;;
6017;SDS011;3037;51.068;13.780;2023-04-30T07:31:23;6.27;;;2.83;;
6017;SDS011;3037;51.068;13.780;2023-04-30T07:33:49;3.83;;;2.87;;
6017;SDS011;3037;51.068;13.780;2023-04-30T07:36:16;4.17;;;3.60;;
6017;SDS011;3037;51.068;13.780;2023-04-30T07:38:41;5.50;;;4.07;;
6017;SDS011;3037;51.068;13.780;2023-04-30T07:41:07;6.50;;;4.10;;
6017;SDS011;3037;51.068;13.780;2023-04-30T07:43:33;4.50;;;3.10;;
6017;SDS011;3037;51.068;13.780;2023-04-30T07:45:59;4.10;;;3.03;;
6017;SDS011;3037;51.068;13.780;2023-04-30T07:48:25;6.23;;;3.17;;
6017;SDS011;3037;51.068;13.780;2023-04-30T07:50:51;7.73;;;3.10;;
6017;SDS011;3037;51.068;13.780;2023-04-30T07:53:16;4.27;;;3.60;;
6017;SDS011;3037;51.068;13.780;2023-04-30T07:55:42;3.10;;;2.90;;
6017;SDS011;3037;51.068;13.780;2023-04-30T07:58:07;7.83;;;4.10;;
6017;SDS011;3037;51.068;13.780;2023-04-30T08:00:33;5.13;;;3.20;;
6017;SDS011;3037;51.068;13.780;2023-04-30T08:02:58;5.60;;;3.43;;
6017;SDS011;3037;51.068;13.780;2023-04-30T08:05:24;10.07;;;3.10;;
6017;SDS011;3037;51.068;13.780;2023-04-30T08:07:50;10.07;;;3.33;;
6017;SDS011;3037;51.068;13.780;2023-04-30T08:10:16;3.33;;;2.90;;
6017;SDS011;3037;51.068;13.780;2023-04-30T08:12:42;6.67;;;3.30;;
6017;SDS011;3037;51.068;13.780;2023-04-30T08:15:08;3.70;;;3.27;;
6017;SDS011;3037;51.068;13.780;2023-04-30T08:17:34;9.77;;;3.53;;
6017;SDS011;3037;51.068;13.780;2023-04-30T08:20:00;5.87;;;3.67;;
6017;SDS011;3037;51.068;13.780;2023-04-30T08:22:27;6.77;;;3.70;;
6017;SDS011;3037;51.068;13.780;2023-04-30T08:24:53;10.50;;;3.50;;
6017;SDS011;3037;51.068;13.780;2023-04-30T08:27:19;7.53;;;3.13;;
6017;SDS011;3037;51.068;13.780;2023-04-30T08:29:45;7.50;;;3.27;;
6017;SDS011;3037;51.068;13.780;2023-04-30T08:32:11;10.90;;;3.87;;
6017;SDS011;3037;51.068;13.780;2023-04-30T08:34:36;7.60;;;3.27;;
6017;SDS011;3037;51.068;13.780;2023-04-30T08:37:02;17.03;;;3.60;;
6017;SDS011;3037;51.068;13.780;2023-04-30T08:39:27;9.63;;;3.27;;
6017;SDS011;3037;51.068;13.780;2023-04-30T08:41:54;3.67;;;3.00;;
6017;SDS011;3037;51.068;13.780;2023-04-30T08:44:21;4.60;;;3.30;;
6017;SDS011;3037;51.068;13.780;2023-04-30T08:46:48;6.53;;;3.57;;
6017;SDS011;3037;51.068;13.780;2023-04-30T08:49:22;4.33;;;2.63;;
6017;SDS011;3037;51.068;13.780;2023-04-30T08:51:49;7.77;;;3.70;;
6017;SDS011;3037;51.068;13.780;2023-04-30T08:54:15;6.87;;;3.37;;
6017;SDS011;3037;51.068;13.780;2023-04-30T08:56:41;8.17;;;3.07;;
6017;SDS011;3037;51.068;13.780;2023-04-30T08:59:08;4.07;;;3.30;;
6017;SDS011;3037;51.068;13.780;2023-04-30T09:01:34;4.80;;;2.77;;
6017;SDS011;3037;51.068;13.780;2023-04-30T09:04:02;4.77;;;3.30;;
6017;SDS011;3037;51.068;13.780;2023-04-30T09:06:28;8.90;;;3.63;;
6017;SDS011;3037;51.068;13.780;2023-04-30T09:08:54;4.00;;;3.43;;
6017;SDS011;3037;51.068;13.780;2023-04-30T09:11:23;7.53;;;3.17;;
6017;SDS011;3037;51.068;13.780;2023-04-30T09:13:54;8.43;;;3.27;;
6017;SDS011;3037;51.068;13.780;2023-04-30T09:16:21;9.63;;;3.60;;
6017;SDS011;3037;51.068;13.780;2023-04-30T09:18:47;6.23;;;3.50;;
6017;SDS011;3037;51.068;13.780;2023-04-30T09:21:14;13.40;;;3.90;;
6017;SDS011;3037;51.068;13.780;2023-04-30T09:24:01;8.13;;;2.87;;
6017;SDS011;3037;51.068;13.780;2023-04-30T09:26:32;11.53;;;4.10;;
6017;SDS011;3037;51.068;13.780;2023-04-30T09:29:02;12.33;;;5.13;;
6017;SDS011;3037;51.068;13.780;2023-04-30T09:31:32;35.57;;;17.73;;
6017;SDS011;3037;51.068;13.780;2023-04-30T09:33:58;16.30;;;8.70;;
6017;SDS011;3037;51.068;13.780;2023-04-30T09:36:24;12.47;;;7.03;;
6017;SDS011;3037;51.068;13.780;2023-04-30T09:38:51;23.97;;;10.60;;
6017;SDS011;3037;51.068;13.780;2023-04-30T09:41:21;4.63;;;2.80;;
6017;SDS011;3037;51.068;13.780;2023-04-30T09:43:48;31.67;;;14.03;;
6017;SDS011;3037;51.068;13.780;2023-04-30T09:46:13;17.37;;;8.43;;
6017;SDS011;3037;51.068;13.780;2023-04-30T09:48:42;12.77;;;3.83;;
6017;SDS011;3037;51.068;13.780;2023-04-30T09:51:09;3.03;;;2.80;;
6017;SDS011;3037;51.068;13.780;2023-04-30T09:53:36;4.63;;;3.73;;
6017;SDS011;3037;51.068;13.780;2023-04-30T09:56:04;13.00;;;7.27;;
6017;SDS011;3037;51.068;13.780;2023-04-30T09:58:34;10.33;;;4.93;;
6017;SDS011;3037;51.068;13.780;2023-04-30T10:01:01;6.73;;;3.80;;
6017;SDS011;3037;51.068;13.780;2023-04-30T10:03:31;11.30;;;5.73;;
6017;SDS011;3037;51.068;13.780;2023-04-30T10:05:57;13.00;;;6.80;;
6017;SDS011;3037;51.068;13.780;2023-04-30T10:08:26;6.73;;;3.07;;
6017;SDS011;3037;51.068;13.780;2023-04-30T10:11:02;10.13;;;5.70;;
6017;SDS011;3037;51.068;13.780;2023-04-30T10:13:30;5.90;;;4.37;;
6017;SDS011;3037;51.068;13.780;2023-04-30T10:16:00;9.70;;;3.10;;
6017;SDS011;3037;51.068;13.780;2023-04-30T10:18:42;9.43;;;3.90;;
6017;SDS011;3037;51.068;13.780;2023-04-30T10:21:10;8.53;;;2.93;;
6017;SDS011;3037;51.068;13.780;2023-04-30T10:23:38;8.47;;;3.10;;
6017;SDS011;3037;51.068;13.780;2023-04-30T10:26:07;4.87;;;2.50;;
6017;SDS011;3037;51.068;13.780;2023-04-30T10:28:36;4.77;;;2.50;;
6017;SDS011;3037;51.068;13.780;2023-04-30T10:31:02;7.63;;;2.37;;
6017;SDS011;3037;51.068;13.780;2023-04-30T10:33:38;8.50;;;2.97;;
6017;SDS011;3037;51.068;13.780;2023-04-30T10:36:30;7.83;;;3.43;;
6017;SDS011;3037;51.068;13.780;2023-04-30T10:39:08;11.83;;;3.53;;
6017;SDS011;3037;51.068;13.780;2023-04-30T10:41:35;5.20;;;2.60;;
6017;SDS011;3037;51.068;13.780;2023-04-30T10:44:01;7.70;;;2.40;;
6017;SDS011;3037;51.068;13.780;2023-04-30T10:46:29;4.93;;;3.20;;
6017;SDS011;3037;51.068;13.780;2023-04-30T10:48:54;5.37;;;2.43;;
6017;SDS011;3037;51.068;13.780;2023-04-30T10:51:20;3.80;;;3.40;;
6017;SDS011;3037;51.068;13.780;2023-04-30T10:53:49;20.07;;;3.30;;
6017;SDS011;3037;51.068;13.780;2023-04-30T10:56:29;5.47;;;2.70;;
6017;SDS011;3037;51.068;13.780;2023-04-30T10:58:59;3.00;;;2.80;;
6017;SDS011;3037;51.068;13.780;2023-04-30T11:01:26;4.93;;;2.80;;
6017;SDS011;3037;51.068;13.780;2023-04-30T11:04:05;5.80;;;3.13;;
6017;SDS011;3037;51.068;13.780;2023-04-30T11:06:47;8.87;;;2.63;;
6017;SDS011;3037;51.068;13.780;2023-04-30T11:09:13;9.83;;;3.10;;
6017;SDS011;3037;51.068;13.780;2023-04-30T11:11:39;4.00;;;2.67;;
6017;SDS011;3037;51.068;13.780;2023-04-30T11:14:05;3.97;;;3.00;;
6017;SDS011;3037;51.068;13.780;2023-04-30T11:16:32;5.53;;;3.10;;
6017;SDS011;3037;51.068;13.780;2023-04-30T11:19:20;9.80;;;3.40;;
6017;SDS011;3037;51.068;13.780;2023-04-30T11:24:49;6.20;;;3.13;;
6017;SDS011;3037;51.068;13.780;2023-04-30T11:28:03;7.33;;;2.40;;
6017;SDS011;3037;51.068;13.780;2023-04-30T11:30:11;8.00;;;3.13;;
6017;SDS011;3037;51.068;13.780;2023-04-30T11:32:39;5.50;;;2.80;;
6017;SDS011;3037;51.068;13.780;2023-04-30T11:35:06;6.23;;;2.60;;
6017;SDS011;3037;51.068;13.780;2023-04-30T11:40:11;4.33;;;2.77;;
6017;SDS011;3037;51.068;13.780;2023-04-30T11:42:38;4.87;;;3.23;;
6017;SDS011;3037;51.068;13.780;2023-04-30T11:45:12;6.37;;;3.20;;
6017;SDS011;3037;51.068;13.780;2023-04-30T11:47:47;5.70;;;2.83;;
6017;SDS011;3037;51.068;13.780;2023-04-30T11:50:15;2.33;;;2.23;;
6017;SDS011;3037;51.068;13.780;2023-04-30T11:52:47;5.97;;;2.30;;
6017;SDS011;3037;51.068;13.780;2023-04-30T11:55:15;3.73;;;3.43;;
6017;SDS011;3037;51.068;13.780;2023-04-30T11:57:42;14.03;;;3.40;;
6017;SDS011;3037;51.068;13.780;2023-04-30T12:00:13;9.60;;;3.07;;
6017;SDS011;3037;51.068;13.780;2023-04-30T12:02:43;11.40;;;3.43;;
6017;SDS011;3037;51.068;13.780;2023-04-30T12:05:13;12.23;;;2.73;;
6017;SDS011;3037;51.068;13.780;2023-04-30T12:07:59;4.40;;;2.30;;
6017;SDS011;3037;51.068;13.780;2023-04-30T12:10:29;2.30;;;2.13;;
6017;SDS011;3037;51.068;13.780;2023-04-30T12:12:55;4.90;;;3.03;;
6017;SDS011;3037;51.068;13.780;2023-04-30T12:15:23;8.13;;;2.70;;
6017;SDS011;3037;51.068;13.780;2023-04-30T12:17:53;5.57;;;2.23;;
6017;SDS011;3037;51.068;13.780;2023-04-30T12:20:20;4.50;;;2.43;;
6017;SDS011;3037;51.068;13.780;2023-04-30T12:22:48;3.93;;;2.50;;
6017;SDS011;3037;51.068;13.780;2023-04-30T12:25:14;3.90;;;2.47;;
6017;SDS011;3037;51.068;13.780;2023-04-30T12:27:46;7.93;;;2.33;;
6017;SDS011;3037;51.068;13.780;2023-04-30T12:30:12;6.47;;;2.60;;
6017;SDS011;3037;51.068;13.780;2023-04-30T12:32:39;5.90;;;2.83;;
6017;SDS011;3037;51.068;13.780;2023-04-30T12:35:12;4.00;;;2.60;;
6017;SDS011;3037;51.068;13.780;2023-04-30T12:37:42;6.53;;;2.83;;
6017;SDS011;3037;51.068;13.780;2023-04-30T12:40:12;6.20;;;2.67;;
6017;SDS011;3037;51.068;13.780;2023-04-30T12:42:38;3.73;;;2.10;;
6017;SDS011;3037;51.068;13.780;2023-04-30T12:45:06;3.87;;;2.43;;
6017;SDS011;3037;51.068;13.780;2023-04-30T12:47:32;6.10;;;2.73;;
6017;SDS011;3037;51.068;13.780;2023-04-30T12:50:03;5.13;;;2.60;;
6017;SDS011;3037;51.068;13.780;2023-04-30T12:52:32;2.27;;;2.03;;
6017;SDS011;3037;51.068;13.780;2023-04-30T12:55:12;2.47;;;2.27;;
6017;SDS011;3037;51.068;13.780;2023-04-30T12:57:39;8.30;;;2.40;;
6017;SDS011;3037;51.068;13.780;2023-04-30T13:00:04;4.20;;;2.47;;
6017;SDS011;3037;51.068;13.780;2023-04-30T13:02:32;6.53;;;2.60;;
6017;SDS011;3037;51.068;13.780;2023-04-30T13:04:57;5.23;;;2.47;;
6017;SDS011;3037;51.068;13.780;2023-04-30T13:07:23;2.80;;;2.23;;
6017;SDS011;3037;51.068;13.780;2023-04-30T13:09:49;3.17;;;1.83;;
6017;SDS011;3037;51.068;13.780;2023-04-30T13:12:14;2.33;;;2.13;;
6017;SDS011;3037;51.068;13.780;2023-04-30T13:14:40;6.50;;;2.30;;
6017;SDS011;3037;51.068;13.780;2023-04-30T13:17:06;3.73;;;2.10;;
6017;SDS011;3037;51.068;13.780;2023-04-30T13:19:33;4.83;;;2.70;;
6017;SDS011;3037;51.068;13.780;2023-04-30T13:21:59;4.03;;;2.13;;
6017;SDS011;3037;51.068;13.780;2023-04-30T13:24:25;3.80;;;2.27;;
6017;SDS011;3037;51.068;13.780;2023-04-30T13:26:51;2.43;;;2.23;;
6017;SDS011;3037;51.068;13.780;2023-04-30T13:29:16;6.30;;;2.30;;
6017;SDS011;3037;51.068;13.780;2023-04-30T13:31:44;6.10;;;2.00;;
6017;SDS011;3037;51.068;13.780;2023-04-30T13:34:12;2.70;;;1.90;;
6017;SDS011;3037;51.068;13.780;2023-04-30T13:36:38;4.53;;;2.97;;
6017;SDS011;3037;51.068;13.780;2023-04-30T13:39:04;4.87;;;2.23;;
6017;SDS011;3037;51.068;13.780;2023-04-30T13:41:30;4.20;;;2.70;;
6017;SDS011;3037;51.068;13.780;2023-04-30T13:43:56;2.97;;;1.67;;
6017;SDS011;3037;51.068;13.780;2023-04-30T13:46:23;5.57;;;2.53;;
6017;SDS011;3037;51.068;13.780;2023-04-30T13:48:48;3.47;;;2.17;;
6017;SDS011;3037;51.068;13.780;2023-04-30T13:51:17;2.77;;;1.80;;
6017;SDS011;3037;51.068;13.780;2023-04-30T13:53:42;2.60;;;1.90;;
6017;SDS011;3037;51.068;13.780;2023-04-30T13:56:08;1.90;;;1.73;;
6017;SDS011;3037;51.068;13.780;2023-04-30T13:58:34;4.77;;;1.80;;
6017;SDS011;3037;51.068;13.780;2023-04-30T14:00:59;2.30;;;1.83;;
6017;SDS011;3037;51.068;13.780;2023-04-30T14:03:25;3.57;;;2.20;;
6017;SDS011;3037;51.068;13.780;2023-04-30T14:05:50;7.80;;;2.07;;
6017;SDS011;3037;51.068;13.780;2023-04-30T14:08:16;2.60;;;1.73;;
6017;SDS011;3037;51.068;13.780;2023-04-30T14:10:42;3.73;;;1.93;;
6017;SDS011;3037;51.068;13.780;2023-04-30T14:13:08;3.40;;;1.97;;
6017;SDS011;3037;51.068;13.780;2023-04-30T14:15:33;3.80;;;1.90;;
6017;SDS011;3037;51.068;13.780;2023-04-30T14:17:59;2.30;;;2.10;;
6017;SDS011;3037;51.068;13.780;2023-04-30T14:20:25;3.00;;;2.03;;
6017;SDS011;3037;51.068;13.780;2023-04-30T14:22:52;1.70;;;1.60;;
6017;SDS011;3037;51.068;13.780;2023-04-30T14:25:17;2.30;;;1.87;;
6017;SDS011;3037;51.068;13.780;2023-04-30T14:27:43;1.50;;;1.50;;
6017;SDS011;3037;51.068;13.780;2023-04-30T14:30:09;1.70;;;1.60;;
6017;SDS011;3037;51.068;13.780;2023-04-30T14:32:35;1.70;;;1.40;;
6017;SDS011;3037;51.068;13.780;2023-04-30T14:35:01;1.90;;;1.80;;
6017;SDS011;3037;51.068;13.780;2023-04-30T14:37:27;5.50;;;2.40;;
6017;SDS011;3037;51.068;13.780;2023-04-30T14:39:53;1.80;;;1.70;;
6017;SDS011;3037;51.068;13.780;2023-04-30T14:42:18;2.23;;;1.90;;
6017;SDS011;3037;51.068;13.780;2023-04-30T14:44:44;1.77;;;1.67;;
6017;SDS011;3037;51.068;13.780;2023-04-30T14:47:10;6.03;;;1.90;;
6017;SDS011;3037;51.068;13.780;2023-04-30T14:49:36;13.40;;;1.83;;
6017;SDS011;3037;51.068;13.780;2023-04-30T14:52:02;1.80;;;1.70;;
6017;SDS011;3037;51.068;13.780;2023-04-30T14:54:28;2.33;;;1.97;;
6017;SDS011;3037;51.068;13.780;2023-04-30T14:56:53;8.93;;;3.43;;
6017;SDS011;3037;51.068;13.780;2023-04-30T14:59:19;4.07;;;3.33;;
6017;SDS011;3037;51.068;13.780;2023-04-30T15:01:44;2.23;;;2.13;;
6017;SDS011;3037;51.068;13.780;2023-04-30T15:04:10;8.70;;;4.20;;
6017;SDS011;3037;51.068;13.780;2023-04-30T15:06:35;5.50;;;2.23;;
6017;SDS011;3037;51.068;13.780;2023-04-30T15:09:01;2.80;;;2.00;;
6017;SDS011;3037;51.068;13.780;2023-04-30T15:11:30;7.23;;;3.53;;
6017;SDS011;3037;51.068;13.780;2023-04-30T15:13:55;2.80;;;1.80;;
6017;SDS011;3037;51.068;13.780;2023-04-30T15:16:21;4.13;;;2.30;;
6017;SDS011;3037;51.068;13.780;2023-04-30T15:18:46;2.27;;;2.10;;
6017;SDS011;3037;51.068;13.780;2023-04-30T15:21:13;4.60;;;1.63;;
6017;SDS011;3037;51.068;13.780;2023-04-30T15:23:38;5.07;;;2.00;;
6017;SDS011;3037;51.068;13.780;2023-04-30T15:26:04;5.60;;;2.93;;